^^
Your Local Weather - Clay, NY Station Historical Data
Daily Summary for April 11, 2017 Units:  English    Metric   Both
« Previous Day
Next Day »
Daily Weekly Monthly Yearly Custom
  High: Low: Average:
Temperature: 73.8 °F 50.2 °F 60.1 °F
Dew Point: 56.6 °F 45.6 °F 50.5 °F
Humidity: 93% 43% 73%
Wind Speed: 6.0mph 0.0mph 1.4mph
Wind Gust: 9.0mph - -
Wind- - WSW
Pressure: 30.08 in 29.94 in -
Precipitation: 0.11 in    
Historical Graphs
 
 
Tabular Data for April 11, 2017
Time Temperature Dew Point Pressure Wind Wind Speed Wind Gust Humidity Rainfall Rate (Hourly) solar
00:04 57.5 °F 48.2 °F 29.95 in Calm     71% 0.00 in 0 W/m2
00:10 57.5 °F 47.8 °F 29.95 in Calm     70% 0.00 in 0 W/m2
00:16 57.7 °F 48.0 °F 29.96 in Calm     70% 0.00 in 0 W/m2
00:22 57.7 °F 48.0 °F 29.96 in Calm     70% 0.00 in 0 W/m2
00:28 57.8 °F 48.1 °F 29.96 in Calm     70% 0.00 in 0 W/m2
00:34 57.8 °F 48.1 °F 29.96 in Calm     70% 0.00 in 0 W/m2
00:40 57.8 °F 48.1 °F 29.96 in Calm     70% 0.00 in 0 W/m2
00:46 58.0 °F 48.6 °F 29.96 in Calm     71% 0.00 in 0 W/m2
00:52 58.2 °F 49.2 °F 29.96 in Calm     72% 0.00 in 0 W/m2
00:58 58.2 °F 48.8 °F 29.96 in Calm     71% 0.00 in 0 W/m2
01:03 58.1 °F 48.0 °F 29.96 in Calm     69% 0.00 in 0 W/m2
01:09 58.3 °F 48.9 °F 29.96 in Calm     71% 0.00 in 0 W/m2
01:16 58.2 °F 49.2 °F 29.95 in Calm   1.0 mph 72% 0.00 in 0 W/m2
01:22 58.0 °F 48.6 °F 29.95 in Calm     71% 0.00 in 0 W/m2
01:28 58.1 °F 48.4 °F 29.95 in Calm     70% 0.00 in 0 W/m2
01:34 58.2 °F 49.2 °F 29.95 in Calm     72% 0.00 in 0 W/m2
01:40 58.1 °F 49.1 °F 29.95 in Calm     72% 0.00 in 0 W/m2
01:46 58.1 °F 49.1 °F 29.95 in Calm     72% 0.00 in 0 W/m2
01:52 58.1 °F 49.1 °F 29.94 in Calm     72% 0.00 in 0 W/m2
01:58 58.3 °F 49.7 °F 29.95 in North 1.0 mph 2.0 mph 73% 0.00 in 0 W/m2
02:04 58.3 °F 49.7 °F 29.94 in North 1.0 mph 2.0 mph 73% 0.00 in 0 W/m2
02:10 58.2 °F 49.2 °F 29.95 in North 1.0 mph 2.0 mph 72% 0.00 in 0 W/m2
02:16 58.4 °F 48.7 °F 29.95 in North 1.0 mph 5.0 mph 70% 0.00 in 0 W/m2
02:22 58.6 °F 48.5 °F 29.95 in North 2.0 mph 3.0 mph 69% 0.00 in 0 W/m2
02:28 58.6 °F 48.1 °F 29.96 in North 1.0 mph 3.0 mph 68% 0.00 in 0 W/m2
02:34 58.4 °F 48.7 °F 29.96 in North 1.0 mph 1.0 mph 70% 0.00 in 0 W/m2
02:40 58.0 °F 48.6 °F 29.95 in Calm     71% 0.00 in 0 W/m2
02:46 57.6 °F 48.6 °F 29.95 in Calm     72% 0.00 in 0 W/m2
02:52 57.1 °F 48.2 °F 29.95 in Calm     72% 0.00 in 0 W/m2
02:58 57.0 °F 48.4 °F 29.96 in Calm     73% 0.00 in 0 W/m2
03:03 56.9 °F 48.3 °F 29.96 in Calm     73% 0.00 in 0 W/m2
03:10 56.8 °F 48.6 °F 29.96 in Calm     74% 0.00 in 0 W/m2
03:16 56.8 °F 48.6 °F 29.96 in Calm     74% 0.00 in 0 W/m2
03:22 56.7 °F 48.5 °F 29.96 in Calm     74% 0.00 in 0 W/m2
03:28 56.6 °F 48.4 °F 29.96 in Calm     74% 0.00 in 0 W/m2
03:34 56.4 °F 48.6 °F 29.96 in Calm     75% 0.00 in 0 W/m2
03:39 56.4 °F 48.6 °F 29.96 in Calm     75% 0.00 in 0 W/m2
03:46 56.3 °F 48.5 °F 29.96 in Calm     75% 0.00 in 0 W/m2
03:52 55.9 °F 48.1 °F 29.96 in Calm     75% 0.00 in 0 W/m2
03:58 55.4 °F 48.0 °F 29.96 in North 1.0 mph 1.0 mph 76% 0.00 in 0 W/m2
04:03 55.1 °F 48.0 °F 29.96 in Calm   1.0 mph 77% 0.00 in 0 W/m2
04:10 55.1 °F 48.0 °F 29.95 in Calm     77% 0.00 in 0 W/m2
04:16 54.8 °F 47.7 °F 29.96 in Calm     77% 0.00 in 0 W/m2
04:22 54.4 °F 47.7 °F 29.96 in Calm   1.0 mph 78% 0.00 in 0 W/m2
04:28 54.3 °F 47.9 °F 29.96 in Calm   1.0 mph 79% 0.00 in 0 W/m2
04:34 54.4 °F 47.7 °F 29.96 in Calm     78% 0.00 in 0 W/m2
04:40 54.3 °F 47.6 °F 29.96 in Calm     78% 0.00 in 0 W/m2
04:46 54.2 °F 47.8 °F 29.96 in Calm     79% 0.00 in 0 W/m2
04:52 54.1 °F 47.7 °F 29.97 in Calm     79% 0.00 in 0 W/m2
04:58 53.9 °F 47.5 °F 29.97 in Calm     79% 0.00 in 0 W/m2
05:04 53.5 °F 47.5 °F 29.97 in Calm     80% 0.00 in 0 W/m2
05:10 53.2 °F 47.2 °F 29.98 in Calm     80% 0.00 in 0 W/m2
05:16 53.0 °F 47.0 °F 29.98 in Calm     80% 0.00 in 0 W/m2
05:22 52.7 °F 47.0 °F 29.98 in Calm     81% 0.00 in 0 W/m2
05:28 52.4 °F 46.7 °F 29.98 in Calm     81% 0.00 in 0 W/m2
05:34 52.2 °F 46.5 °F 29.98 in Calm     81% 0.00 in 0 W/m2
05:40 51.9 °F 46.6 °F 29.98 in Calm     82% 0.00 in 0 W/m2
05:46 51.8 °F 46.5 °F 29.98 in Calm     82% 0.00 in 0 W/m2
05:52 51.6 °F 46.6 °F 29.98 in Calm     83% 0.00 in 0 W/m2
05:58 51.4 °F 46.4 °F 29.98 in Calm     83% 0.00 in 0 W/m2
06:04 51.2 °F 46.5 °F 29.97 in Calm   2.0 mph 84% 0.00 in 0 W/m2
06:10 50.9 °F 46.2 °F 29.97 in Calm     84% 0.00 in 0 W/m2
06:16 50.8 °F 46.1 °F 29.98 in Calm     84% 0.00 in 0 W/m2
06:22 50.7 °F 46.0 °F 29.98 in Calm     84% 0.00 in 0 W/m2
06:28 50.5 °F 45.8 °F 29.98 in Calm     84% 0.00 in 5 W/m2
06:34 50.3 °F 45.6 °F 29.98 in Calm     84% 0.00 in 9 W/m2
06:40 50.2 °F 45.6 °F 29.98 in Calm     84% 0.00 in 16 W/m2
06:45 50.4 °F 46.1 °F 29.99 in Calm     85% 0.00 in 25 W/m2
06:52 50.5 °F 46.2 °F 29.99 in North 1.0 mph 1.0 mph 85% 0.00 in 47 W/m2
06:58 50.8 °F 46.5 °F 29.99 in North 1.0 mph 1.0 mph 85% 0.00 in 58 W/m2
07:04 51.3 °F 46.9 °F 29.99 in Calm   1.0 mph 85% 0.00 in 56 W/m2
07:10 52.5 °F 48.1 °F 30.00 in North 1.0 mph 1.0 mph 85% 0.00 in 54 W/m2
07:16 53.5 °F 48.5 °F 30.00 in North 1.0 mph 1.0 mph 83% 0.00 in 62 W/m2
07:22 54.0 °F 48.3 °F 30.00 in Calm     81% 0.00 in 65 W/m2
07:28 54.5 °F 48.5 °F 30.01 in Calm     80% 0.00 in 72 W/m2
07:34 55.0 °F 48.9 °F 30.01 in Calm     80% 0.00 in 105 W/m2
07:40 55.6 °F 48.8 °F 30.01 in Calm     78% 0.00 in 105 W/m2
07:46 56.3 °F 49.2 °F 30.01 in Calm     77% 0.00 in 139 W/m2
07:52 57.3 °F 49.8 °F 30.01 in Calm   1.0 mph 76% 0.00 in 195 W/m2
07:58 58.2 °F 49.6 °F 30.01 in Calm   1.0 mph 73% 0.00 in 172 W/m2
08:03 59.0 °F 50.0 °F 30.01 in North 1.0 mph 1.0 mph 72% 0.00 in 236 W/m2
08:10 59.8 °F 50.4 °F 30.01 in North 1.0 mph 1.0 mph 71% 0.00 in 178 W/m2
08:15 60.7 °F 50.9 °F 30.01 in Calm   2.0 mph 70% 0.00 in 156 W/m2
08:22 61.5 °F 50.4 °F 30.01 in West 1.0 mph 1.0 mph 67% 0.00 in 107 W/m2
08:28 62.3 °F 50.0 °F 30.00 in SW 1.0 mph 3.0 mph 64% 0.00 in 93 W/m2
08:34 62.9 °F 50.5 °F 29.99 in SSW 2.0 mph 3.0 mph 64% 0.00 in 95 W/m2
08:40 63.4 °F 50.1 °F 29.99 in SSE 2.0 mph 2.0 mph 62% 0.00 in 97 W/m2
08:46 63.7 °F 50.9 °F 29.99 in SSE 2.0 mph 2.0 mph 63% 0.00 in 113 W/m2
08:52 64.1 °F 49.9 °F 29.99 in SSW 1.0 mph 1.0 mph 60% 0.00 in 139 W/m2
08:58 64.6 °F 50.4 °F 30.01 in SW 1.0 mph 1.0 mph 60% 0.00 in 190 W/m2
09:08 66.0 °F 50.8 °F 30.01 in SW 1.0 mph 2.0 mph 58% 0.00 in 302 W/m2
09:14 67.1 °F 50.4 °F 30.00 in SW 2.0 mph 4.0 mph 55% 0.00 in 352 W/m2
09:20 68.1 °F 50.3 °F 30.00 in SSW 3.0 mph 5.0 mph 53% 0.00 in 455 W/m2
09:26 69.4 °F 49.9 °F 30.00 in SSW 4.0 mph 6.0 mph 50% 0.00 in 519 W/m2
09:34 70.1 °F 49.5 °F 30.01 in WSW 4.0 mph 7.0 mph 48% 0.00 in 555 W/m2
09:40 70.8 °F 50.1 °F 30.01 in SSW 4.0 mph 7.0 mph 48% 0.00 in 580 W/m2
09:46 71.2 °F 50.5 °F 30.00 in WNW 3.0 mph 7.0 mph 48% 0.00 in 380 W/m2
09:52 71.6 °F 48.5 °F 29.99 in West 3.0 mph 5.0 mph 44% 0.00 in 628 W/m2
09:58 71.2 °F 49.4 °F 30.00 in WNW 4.0 mph 5.0 mph 46% 0.00 in 297 W/m2
10:04 71.1 °F 49.3 °F 30.01 in WNW 3.0 mph 6.0 mph 46% 0.00 in 577 W/m2
10:10 71.8 °F 48.7 °F 30.01 in WNW 3.0 mph 3.0 mph 44% 0.00 in 621 W/m2
10:16 72.1 °F 49.6 °F 30.01 in WNW 5.0 mph 6.0 mph 45% 0.00 in 559 W/m2
10:22 71.9 °F 48.8 °F 30.01 in WNW 4.0 mph 4.0 mph 44% 0.00 in 311 W/m2
10:28 71.6 °F 49.1 °F 30.01 in West 4.0 mph 4.0 mph 45% 0.00 in 294 W/m2
10:34 72.1 °F 49.0 °F 30.01 in West 4.0 mph 6.0 mph 44% 0.00 in 578 W/m2
10:39 72.0 °F 48.9 °F 30.01 in West 5.0 mph 7.0 mph 44% 0.00 in 471 W/m2
10:46 71.6 °F 49.1 °F 30.01 in West 6.0 mph 7.0 mph 45% 0.00 in 469 W/m2
10:52 71.9 °F 50.6 °F 30.01 in WNW 3.0 mph 5.0 mph 47% 0.00 in 332 W/m2
10:58 71.4 °F 48.3 °F 30.01 in West 3.0 mph 6.0 mph 44% 0.00 in 431 W/m2
11:04 71.3 °F 49.4 °F 30.01 in WNW 4.0 mph 7.0 mph 46% 0.00 in 529 W/m2
11:09 72.1 °F 49.6 °F 30.02 in WNW 4.0 mph 4.0 mph 45% 0.00 in 501 W/m2
11:16 71.6 °F 47.9 °F 30.02 in WSW 4.0 mph 9.0 mph 43% 0.00 in 429 W/m2
11:22 72.0 °F 49.5 °F 30.01 in WNW 4.0 mph 6.0 mph 45% 0.00 in 432 W/m2
11:28 72.3 °F 49.8 °F 30.02 in WSW 3.0 mph 6.0 mph 45% 0.00 in 496 W/m2
11:34 72.6 °F 50.0 °F 30.02 in West 3.0 mph 4.0 mph 45% 0.00 in 417 W/m2
11:40 72.6 °F 50.6 °F 30.02 in WSW 3.0 mph 3.0 mph 46% 0.00 in 548 W/m2
11:46 72.8 °F 50.8 °F 30.02 in West 2.0 mph 6.0 mph 46% 0.00 in 640 W/m2
11:52 73.0 °F 49.2 °F 30.02 in WSW 3.0 mph 7.0 mph 43% 0.00 in 578 W/m2
11:58 73.2 °F 51.8 °F 30.02 in SW 4.0 mph 7.0 mph 47% 0.00 in 657 W/m2
12:04 73.8 °F 50.5 °F 30.02 in West 4.0 mph 5.0 mph 44% 0.00 in 666 W/m2
12:10 73.2 °F 50.6 °F 30.02 in SW 4.0 mph 6.0 mph 45% 0.00 in 550 W/m2
12:16 73.4 °F 51.4 °F 30.02 in WSW 4.0 mph 9.0 mph 46% 0.00 in 687 W/m2
12:22 73.0 °F 49.8 °F 30.02 in West 5.0 mph 7.0 mph 44% 0.00 in 534 W/m2
12:28 72.8 °F 51.4 °F 30.02 in WNW 5.0 mph 7.0 mph 47% 0.00 in 707 W/m2
12:34 73.1 °F 50.5 °F 30.01 in West 4.0 mph 9.0 mph 45% 0.00 in 930 W/m2
12:40 73.5 °F 50.9 °F 30.01 in WSW 4.0 mph 6.0 mph 45% 0.00 in 540 W/m2
12:46 73.1 °F 49.9 °F 30.01 in West 4.0 mph 7.0 mph 44% 0.00 in 538 W/m2
12:52 72.8 °F 49.6 °F 30.00 in WSW 4.0 mph 4.0 mph 44% 0.00 in 631 W/m2
12:58 73.4 °F 51.4 °F 30.00 in NW 3.0 mph 4.0 mph 46% 0.00 in 483 W/m2
13:04 73.3 °F 50.1 °F 30.01 in WSW 3.0 mph 7.0 mph 44% 0.00 in 369 W/m2
13:10 73.0 °F 49.8 °F 30.01 in West 3.0 mph 3.0 mph 44% 0.00 in 236 W/m2
13:16 72.4 °F 50.4 °F 30.01 in WNW 3.0 mph 3.0 mph 46% 0.00 in 174 W/m2
13:22 71.9 °F 50.6 °F 30.01 in NW 3.0 mph 3.0 mph 47% 0.00 in 207 W/m2
13:28 71.8 °F 51.0 °F 30.01 in West 3.0 mph 6.0 mph 48% 0.00 in 297 W/m2
13:34 72.1 °F 50.8 °F 30.01 in NW 3.0 mph 5.0 mph 47% 0.00 in 267 W/m2
13:40 72.2 °F 51.4 °F 30.02 in WNW 4.0 mph 4.0 mph 48% 0.00 in 246 W/m2
13:46 72.0 °F 50.7 °F 30.02 in NNW 3.0 mph 5.0 mph 47% 0.00 in 197 W/m2
13:52 71.6 °F 50.3 °F 30.03 in NW 4.0 mph 7.0 mph 47% 0.00 in 56 W/m2
13:58 71.3 °F 50.0 °F 30.04 in WSW 4.0 mph 7.0 mph 47% 0.00 in 63 W/m2
14:04 71.0 °F 50.9 °F 30.04 in WNW 3.0 mph 5.0 mph 49% 0.00 in 58 W/m2
14:10 70.6 °F 51.6 °F 30.05 in WNW 4.0 mph 4.0 mph 51% 0.00 in 53 W/m2
14:16 70.0 °F 54.1 °F 30.05 in WNW 2.0 mph 4.0 mph 57% 0.00 in 63 W/m2
14:22 68.6 °F 54.2 °F 30.06 in WSW 1.0 mph 3.0 mph 60% 0.00 in 69 W/m2
14:28 67.8 °F 53.9 °F 30.07 in WSW 2.0 mph 3.0 mph 61% 0.00 in 62 W/m2
14:33 67.5 °F 53.6 °F 30.05 in WSW 2.0 mph 5.0 mph 61% 0.00 in 63 W/m2
14:40 67.4 °F 53.9 °F 30.05 in WSW 2.0 mph 3.0 mph 62% 0.00 in 74 W/m2
14:46 67.1 °F 54.9 °F 30.06 in WSW 1.0 mph 3.0 mph 65% 0.00 in 65 W/m2
14:52 66.6 °F 54.5 °F 30.07 in WSW 1.0 mph 4.0 mph 65% 0.00 in 47 W/m2
14:58 66.1 °F 54.4 °F 30.07 in WSW 3.0 mph 8.0 mph 66% 0.00 in 90 W/m2
15:04 65.5 °F 54.7 °F 30.06 in SSE 5.0 mph 5.0 mph 68% 0.00 in 146 W/m2
15:10 65.2 °F 55.2 °F 30.06 in SW 4.0 mph 4.0 mph 70% 0.00 in 102 W/m2
15:16 65.1 °F 55.5 °F 30.07 in West 4.0 mph 4.0 mph 71% 0.00 in 51 W/m2
15:22 64.8 °F 55.2 °F 30.07 in WNW 3.0 mph 3.0 mph 71% 0.00 in 30 W/m2
15:28 64.2 °F 54.2 °F 30.07 in NW 4.0 mph 7.0 mph 70% 0.00 in 44 W/m2
15:34 63.0 °F 54.2 °F 30.07 in WNW 5.0 mph 8.0 mph 73% 0.00 in 42 W/m2
15:40 61.4 °F 53.8 °F 30.07 in WNW 5.0 mph 5.0 mph 76% 0.00 in 42 W/m2
15:46 60.3 °F 54.1 °F 30.07 in WNW 5.0 mph 7.0 mph 80% 0.05 in 39 W/m2
15:52 59.5 °F 54.0 °F 30.07 in NW 4.0 mph 4.0 mph 82% 0.07 in 53 W/m2
15:58 59.1 °F 53.9 °F 30.07 in NW 2.0 mph 4.0 mph 83% 0.07 in 26 W/m2
16:04 58.9 °F 54.1 °F 30.08 in WNW 1.0 mph 2.0 mph 84% 0.05 in 26 W/m2
16:10 58.7 °F 53.9 °F 30.08 in West 1.0 mph 1.0 mph 84% 0.04 in 25 W/m2
16:16 58.6 °F 53.8 °F 30.07 in West 1.0 mph 2.0 mph 84% 0.12 in 19 W/m2
16:22 58.5 °F 54.0 °F 30.07 in WSW 1.0 mph 2.0 mph 85% 0.24 in 21 W/m2
16:28 58.4 °F 53.9 °F 30.07 in WSW 1.0 mph 2.0 mph 85% 0.24 in 23 W/m2
16:34 58.3 °F 54.1 °F 30.07 in SSW 1.0 mph 2.0 mph 86% 0.14 in 23 W/m2
16:40 58.3 °F 54.4 °F 30.06 in SSW 2.0 mph 2.0 mph 87% 0.08 in 33 W/m2
16:46 58.3 °F 54.4 °F 30.07 in SSW 1.0 mph 2.0 mph 87% 0.04 in 46 W/m2
16:52 58.4 °F 54.9 °F 30.06 in Calm   1.0 mph 88% 0.00 in 79 W/m2
16:58 58.6 °F 55.1 °F 30.06 in SSW 1.0 mph 2.0 mph 88% 0.00 in 95 W/m2
17:04 58.7 °F 55.5 °F 30.06 in SSW 1.0 mph 2.0 mph 89% 0.00 in 79 W/m2
17:10 58.8 °F 55.6 °F 30.05 in SE 2.0 mph 2.0 mph 89% 0.00 in 86 W/m2
17:16 59.0 °F 55.8 °F 30.06 in SE 2.0 mph 2.0 mph 89% 0.00 in 128 W/m2
17:22 59.4 °F 56.2 °F 30.05 in SE 1.0 mph 2.0 mph 89% 0.00 in 190 W/m2
17:28 59.9 °F 56.6 °F 30.05 in SSE 2.0 mph 3.0 mph 89% 0.00 in 163 W/m2
17:34 60.2 °F 56.6 °F 30.06 in SSE 2.0 mph 4.0 mph 88% 0.00 in 185 W/m2
17:39 60.3 °F 56.4 °F 30.06 in SE 3.0 mph 3.0 mph 87% 0.00 in 160 W/m2
17:46 60.5 °F 56.0 °F 30.04 in SSE 3.0 mph 6.0 mph 85% 0.00 in 167 W/m2
17:52 60.6 °F 55.7 °F 30.05 in SSE 4.0 mph 5.0 mph 84% 0.00 in 162 W/m2
17:58 60.8 °F 55.6 °F 30.04 in SSE 4.0 mph 5.0 mph 83% 0.00 in 149 W/m2
18:04 61.0 °F 55.8 °F 30.04 in SE 3.0 mph 4.0 mph 83% 0.00 in 137 W/m2
18:10 61.1 °F 55.6 °F 30.04 in SE 2.0 mph 3.0 mph 82% 0.00 in 158 W/m2
18:16 61.3 °F 56.1 °F 30.04 in SSE 3.0 mph 4.0 mph 83% 0.00 in 155 W/m2
18:22 61.4 °F 55.9 °F 30.04 in SE 2.0 mph 5.0 mph 82% 0.00 in 151 W/m2
18:28 61.3 °F 55.4 °F 30.04 in SE 4.0 mph 7.0 mph 81% 0.00 in 125 W/m2
18:34 61.2 °F 55.3 °F 30.04 in South 4.0 mph 4.0 mph 81% 0.00 in 93 W/m2
18:39 61.1 °F 54.9 °F 30.04 in SE 3.0 mph 4.0 mph 80% 0.00 in 81 W/m2
18:46 61.0 °F 54.8 °F 30.04 in South 3.0 mph 4.0 mph 80% 0.00 in 70 W/m2
18:52 60.8 °F 54.6 °F 30.03 in SSE 3.0 mph 3.0 mph 80% 0.00 in 63 W/m2
18:58 60.6 °F 54.4 °F 30.03 in ESE 2.0 mph 3.0 mph 80% 0.00 in 47 W/m2
19:04 60.3 °F 54.1 °F 30.03 in SE 2.0 mph 3.0 mph 80% 0.00 in 37 W/m2
19:10 60.1 °F 53.9 °F 30.03 in SE 2.0 mph 2.0 mph 80% 0.00 in 28 W/m2
19:16 59.9 °F 53.7 °F 30.04 in SE 2.0 mph 3.0 mph 80% 0.00 in 23 W/m2
19:22 59.8 °F 53.6 °F 30.04 in SE 1.0 mph 1.0 mph 80% 0.00 in 16 W/m2
19:28 59.5 °F 53.7 °F 30.04 in Calm   1.0 mph 81% 0.00 in 12 W/m2
19:34 59.0 °F 53.8 °F 30.04 in Calm     83% 0.00 in 7 W/m2
19:40 58.4 °F 53.3 °F 30.04 in Calm     83% 0.00 in 0 W/m2
19:46 58.0 °F 53.2 °F 30.04 in Calm     84% 0.00 in 0 W/m2
19:52 57.4 °F 52.9 °F 30.04 in Calm     85% 0.00 in 0 W/m2
19:58 57.0 °F 52.9 °F 30.04 in Calm     86% 0.00 in 0 W/m2
20:04 56.8 °F 53.0 °F 30.04 in Calm     87% 0.00 in 0 W/m2
20:10 56.4 °F 52.9 °F 30.04 in Calm     88% 0.00 in 0 W/m2
20:16 56.0 °F 52.5 °F 30.04 in Calm     88% 0.00 in 0 W/m2
20:22 55.6 °F 52.1 °F 30.04 in Calm     88% 0.00 in 0 W/m2
20:28 55.3 °F 52.1 °F 30.04 in Calm     89% 0.00 in 0 W/m2
20:33 54.9 °F 51.7 °F 30.05 in Calm     89% 0.00 in 0 W/m2
20:40 54.8 °F 51.9 °F 30.05 in Calm     90% 0.00 in 0 W/m2
20:46 54.7 °F 51.8 °F 30.05 in Calm     90% 0.00 in 0 W/m2
20:52 54.4 °F 51.5 °F 30.05 in Calm     90% 0.00 in 0 W/m2
20:58 54.0 °F 51.1 °F 30.04 in Calm     90% 0.00 in 0 W/m2
21:04 53.6 °F 50.7 °F 30.04 in Calm     90% 0.00 in 0 W/m2
21:10 53.3 °F 50.4 °F 30.05 in Calm     90% 0.00 in 0 W/m2
21:15 53.1 °F 50.5 °F 30.05 in Calm     91% 0.00 in 0 W/m2
21:22 52.9 °F 50.3 °F 30.05 in Calm     91% 0.00 in 0 W/m2
21:28 52.7 °F 50.1 °F 30.04 in Calm     91% 0.00 in 0 W/m2
21:34 52.4 °F 49.8 °F 30.04 in Calm     91% 0.00 in 0 W/m2
21:40 52.1 °F 49.6 °F 30.04 in Calm     91% 0.00 in 0 W/m2
21:46 51.9 °F 49.4 °F 30.04 in Calm     91% 0.00 in 0 W/m2
21:52 51.9 °F 49.4 °F 30.04 in Calm     91% 0.00 in 0 W/m2
21:58 51.7 °F 49.2 °F 30.04 in Calm   1.0 mph 91% 0.00 in 0 W/m2
22:04 51.5 °F 49.0 °F 30.04 in SE 1.0 mph 1.0 mph 91% 0.00 in 0 W/m2
22:10 51.4 °F 49.2 °F 30.04 in Calm     92% 0.00 in 0 W/m2
22:16 51.3 °F 49.1 °F 30.04 in Calm     92% 0.00 in 0 W/m2
22:22 51.4 °F 49.2 °F 30.04 in Calm   1.0 mph 92% 0.00 in 0 W/m2
22:28 51.4 °F 49.2 °F 30.04 in Calm   1.0 mph 92% 0.00 in 0 W/m2
22:34 51.4 °F 49.2 °F 30.04 in Calm   1.0 mph 92% 0.00 in 0 W/m2
22:40 51.2 °F 49.0 °F 30.03 in SE 1.0 mph 2.0 mph 92% 0.00 in 0 W/m2
22:46 51.2 °F 49.0 °F 30.04 in SE 1.0 mph 2.0 mph 92% 0.00 in 0 W/m2
22:52 51.3 °F 49.1 °F 30.04 in Calm   1.0 mph 92% 0.00 in 0 W/m2
22:58 51.4 °F 49.2 °F 30.03 in Calm   1.0 mph 92% 0.00 in 0 W/m2
23:04 51.3 °F 49.1 °F 30.03 in Calm     92% 0.00 in 0 W/m2
23:10 51.2 °F 49.2 °F 30.03 in SE 1.0 mph 1.0 mph 93% 0.00 in 0 W/m2
23:15 51.6 °F 49.6 °F 30.03 in East 2.0 mph 5.0 mph 93% 0.00 in 0 W/m2
23:22 51.4 °F 49.4 °F 30.04 in East 1.0 mph 1.0 mph 93% 0.00 in 0 W/m2
23:28 51.6 °F 49.6 °F 30.03 in East 1.0 mph 1.0 mph 93% 0.00 in 0 W/m2
23:34 51.7 °F 49.7 °F 30.03 in Calm   1.0 mph 93% 0.00 in 0 W/m2
23:40 51.7 °F 49.7 °F 30.03 in East 1.0 mph 2.0 mph 93% 0.00 in 0 W/m2
23:46 52.2 °F 50.2 °F 30.03 in East 1.0 mph 2.0 mph 93% 0.00 in 0 W/m2
23:52 51.9 °F 49.9 °F 30.03 in Calm   1.0 mph 93% 0.00 in 0 W/m2
23:58 51.7 °F 49.7 °F 30.03 in Calm   1.0 mph 93% 0.00 in 0 W/m2
Country Meadow, Clay, NY, USA
Compliments of Weather Underground - 2 mb